createdAt,value
2024-03-12T00:00:16.714Z,14.69
2024-03-12T00:02:45.706Z,14.71
2024-03-12T00:05:16.775Z,14.70
2024-03-12T00:07:44.078Z,14.66
2024-03-12T00:10:16.168Z,14.70
2024-03-12T00:12:48.776Z,14.71
2024-03-12T00:15:19.243Z,14.71
2024-03-12T00:17:46.000Z,14.71
2024-03-12T00:20:19.604Z,14.70
2024-03-12T00:22:48.384Z,14.70
2024-03-12T00:25:15.947Z,14.65
2024-03-12T00:27:43.204Z,14.65
2024-03-12T00:30:10.839Z,14.60
2024-03-12T00:32:40.379Z,14.61
2024-03-12T00:35:07.881Z,14.65
2024-03-12T00:37:34.529Z,14.72
2024-03-12T00:40:01.168Z,14.72
2024-03-12T00:42:27.806Z,14.70
2024-03-12T00:44:54.293Z,14.67
2024-03-12T00:47:23.198Z,14.68
2024-03-12T00:49:51.840Z,14.66
2024-03-12T00:52:18.939Z,14.64
2024-03-12T00:54:47.061Z,14.62
2024-03-12T00:57:14.484Z,14.59
2024-03-12T00:59:42.218Z,14.60
2024-03-12T01:02:11.491Z,14.58
2024-03-12T01:04:41.301Z,14.60
2024-03-12T01:07:12.041Z,14.59
2024-03-12T01:09:40.618Z,14.54
2024-03-12T01:12:10.373Z,14.55
2024-03-12T01:14:38.130Z,14.52
2024-03-12T01:17:07.904Z,14.55
2024-03-12T01:19:37.640Z,14.60
2024-03-12T01:22:06.969Z,14.58
2024-03-12T01:24:35.038Z,14.58
2024-03-12T01:27:02.070Z,14.57
2024-03-12T01:29:28.718Z,14.55
2024-03-12T01:31:56.257Z,14.57
2024-03-12T01:34:23.752Z,14.58
2024-03-12T01:36:50.738Z,14.60
2024-03-12T01:39:17.630Z,14.59
2024-03-12T01:41:45.873Z,14.56
2024-03-12T01:44:12.825Z,14.53
2024-03-12T01:46:39.390Z,14.56
2024-03-12T01:49:06.350Z,14.53
2024-03-12T01:51:33.165Z,14.52
2024-03-12T01:53:59.671Z,14.54
2024-03-12T01:56:26.155Z,14.55
2024-03-12T01:58:52.755Z,14.53
2024-03-12T02:01:22.365Z,14.54
2024-03-12T02:03:49.807Z,14.54
2024-03-12T02:06:16.346Z,14.58
2024-03-12T02:08:42.808Z,14.56
2024-03-12T02:11:09.629Z,14.55
2024-03-12T02:13:36.555Z,14.54
2024-03-12T02:16:03.305Z,14.56
2024-03-12T02:18:29.888Z,14.54
2024-03-12T02:20:56.382Z,14.53
2024-03-12T02:23:34.902Z,14.53
2024-03-12T02:26:01.349Z,14.53
2024-03-12T02:28:27.792Z,14.53
2024-03-12T02:30:54.364Z,14.50
2024-03-12T02:33:21.472Z,14.48
2024-03-12T02:35:47.931Z,14.51
2024-03-12T02:38:14.391Z,14.56
2024-03-12T02:40:40.881Z,14.50
2024-03-12T02:43:07.471Z,14.48
2024-03-12T02:45:34.792Z,14.52
2024-03-12T02:48:01.340Z,14.48
2024-03-12T02:50:30.792Z,14.37
2024-03-12T02:52:57.275Z,14.37
2024-03-12T02:55:24.058Z,14.38
2024-03-12T02:57:50.558Z,14.43
2024-03-12T03:00:18.388Z,14.38
2024-03-12T03:02:45.532Z,14.35
2024-03-12T03:05:13.159Z,14.35
2024-03-12T03:07:41.422Z,14.33
2024-03-12T03:10:08.207Z,14.34
2024-03-12T03:12:34.743Z,14.31
2024-03-12T03:15:01.284Z,14.33
2024-03-12T03:17:27.739Z,14.29
2024-03-12T03:19:54.296Z,14.25
2024-03-12T03:22:20.808Z,14.23
2024-03-12T03:24:47.609Z,14.23
2024-03-12T03:27:14.249Z,14.26
2024-03-12T03:29:40.716Z,14.32
2024-03-12T03:32:08.002Z,14.24
2024-03-12T03:34:34.537Z,14.27
2024-03-12T03:37:01.102Z,14.26
2024-03-12T03:39:27.839Z,14.22
2024-03-12T03:41:56.223Z,14.24
2024-03-12T03:44:23.512Z,14.30
2024-03-12T03:46:50.202Z,14.23
2024-03-12T03:49:16.718Z,14.20
2024-03-12T03:51:43.389Z,14.18
2024-03-12T03:54:10.465Z,14.21
2024-03-12T03:56:36.954Z,14.27
2024-03-12T03:59:06.322Z,14.24
2024-03-12T04:01:32.955Z,14.23
2024-03-12T04:03:59.718Z,14.27
2024-03-12T04:06:26.649Z,14.18
2024-03-12T04:08:55.907Z,14.18
2024-03-12T04:11:22.441Z,14.20
2024-03-12T04:13:48.947Z,14.21
2024-03-12T04:16:16.182Z,14.22
2024-03-12T04:18:45.596Z,14.22
2024-03-12T04:21:14.959Z,14.23
2024-03-12T04:23:43.655Z,14.28
2024-03-12T04:26:10.212Z,14.23
2024-03-12T04:28:39.910Z,14.24
2024-03-12T04:31:09.352Z,14.27
2024-03-12T04:33:35.888Z,14.25
2024-03-12T04:36:02.393Z,14.30
2024-03-12T04:38:31.328Z,14.22
2024-03-12T04:40:57.803Z,14.25
2024-03-12T04:43:24.240Z,14.25
2024-03-12T04:45:50.714Z,14.26
2024-03-12T04:48:17.190Z,14.27
2024-03-12T04:50:43.749Z,14.29
2024-03-12T04:53:10.429Z,14.31
2024-03-12T04:55:40.203Z,14.25
2024-03-12T04:58:06.954Z,14.23
2024-03-12T05:00:33.632Z,14.25
2024-03-12T05:03:01.232Z,14.26
2024-03-12T05:05:27.722Z,14.27
2024-03-12T05:07:54.174Z,14.31
2024-03-12T05:10:25.388Z,14.30
2024-03-12T05:12:52.540Z,14.29
2024-03-12T05:15:19.176Z,14.27
2024-03-12T05:17:49.641Z,14.26
2024-03-12T05:20:18.493Z,14.27
2024-03-12T05:22:47.031Z,14.25
2024-03-12T05:25:37.118Z,14.23
2024-03-12T05:28:05.803Z,14.22
2024-03-12T05:30:32.320Z,14.21
2024-03-12T05:33:05.159Z,14.20
2024-03-12T05:35:33.009Z,14.22
2024-03-12T05:38:13.013Z,14.25
2024-03-12T05:40:42.494Z,14.22
2024-03-12T05:43:27.733Z,14.24
2024-03-12T05:46:12.993Z,14.25
2024-03-12T05:48:40.204Z,14.28
2024-03-12T05:51:08.541Z,14.29
2024-03-12T05:53:38.525Z,14.25
2024-03-12T05:56:08.568Z,14.25
2024-03-12T05:58:35.304Z,14.15
2024-03-12T06:01:03.604Z,14.15
2024-03-12T06:03:30.503Z,14.19
2024-03-12T06:05:57.388Z,14.20
2024-03-12T06:08:25.734Z,14.26
2024-03-12T06:10:54.985Z,14.28
2024-03-12T06:13:23.582Z,14.27
2024-03-12T06:15:51.007Z,14.27
2024-03-12T06:18:19.426Z,14.28
2024-03-12T06:20:50.286Z,14.25
2024-03-12T06:23:23.488Z,14.22
2024-03-12T06:25:50.431Z,14.25
2024-03-12T06:28:17.464Z,14.23
2024-03-12T06:30:44.575Z,14.20
2024-03-12T06:33:13.162Z,14.24
2024-03-12T06:35:41.128Z,14.18
2024-03-12T06:38:07.669Z,14.17
2024-03-12T06:40:34.310Z,14.18
2024-03-12T06:43:00.836Z,14.14
2024-03-12T06:45:28.364Z,14.16
2024-03-12T06:47:57.036Z,14.22
2024-03-12T06:50:26.940Z,14.23
2024-03-12T06:52:54.226Z,14.26
2024-03-12T06:55:24.780Z,14.24
2024-03-12T06:58:00.801Z,14.27
2024-03-12T07:00:37.943Z,14.29
2024-03-12T07:03:05.746Z,14.28
2024-03-12T07:05:37.170Z,14.33
2024-03-12T07:08:06.986Z,14.38
2024-03-12T07:10:34.703Z,14.45
2024-03-12T07:13:03.362Z,14.41
2024-03-12T07:15:32.585Z,14.41
2024-03-12T07:17:59.675Z,14.42
2024-03-12T07:20:29.046Z,14.39
2024-03-12T07:22:58.053Z,14.38
2024-03-12T07:25:24.492Z,14.31
2024-03-12T07:27:51.253Z,14.33
2024-03-12T07:30:17.746Z,14.28
2024-03-12T07:32:44.226Z,14.35
2024-03-12T07:35:10.918Z,14.40
2024-03-12T07:37:40.731Z,14.42
2024-03-12T07:40:13.186Z,14.66
2024-03-12T07:42:42.725Z,14.56
2024-03-12T07:45:15.596Z,14.47
2024-03-12T07:47:42.243Z,14.41
2024-03-12T07:50:14.938Z,14.37
2024-03-12T07:52:41.413Z,14.43
2024-03-12T07:55:08.268Z,14.38
2024-03-12T07:57:36.455Z,14.32
2024-03-12T08:00:07.031Z,14.30
2024-03-12T08:02:33.484Z,14.34
2024-03-12T08:05:00.001Z,14.23
2024-03-12T08:07:26.506Z,14.26
2024-03-12T08:09:53.653Z,14.30
2024-03-12T08:12:20.805Z,14.28
2024-03-12T08:14:47.532Z,14.31
2024-03-12T08:17:14.063Z,14.22
2024-03-12T08:19:41.948Z,14.19
2024-03-12T08:22:09.653Z,14.19
2024-03-12T08:24:38.326Z,14.23
2024-03-12T08:27:05.952Z,14.25
2024-03-12T08:29:32.756Z,14.28
2024-03-12T08:32:00.788Z,14.28
2024-03-12T08:34:28.349Z,14.30
2024-03-12T08:36:56.489Z,14.31
2024-03-12T08:39:23.378Z,14.37
2024-03-12T08:41:50.264Z,14.33
2024-03-12T08:44:16.743Z,14.34
2024-03-12T08:46:43.348Z,14.29
2024-03-12T08:49:12.130Z,14.36
2024-03-12T08:51:40.639Z,14.34
2024-03-12T08:54:07.732Z,14.32
2024-03-12T08:56:36.617Z,14.34
2024-03-12T08:59:04.207Z,14.39
2024-03-12T09:01:31.716Z,14.29
2024-03-12T09:03:58.838Z,14.31
2024-03-12T09:06:25.412Z,14.21
2024-03-12T09:08:51.889Z,14.30
2024-03-12T09:11:18.934Z,14.28
2024-03-12T09:13:48.914Z,14.29
2024-03-12T09:16:15.679Z,14.27
2024-03-12T09:18:45.341Z,14.17
2024-03-12T09:21:13.899Z,14.22
2024-03-12T09:23:48.176Z,14.21
2024-03-12T09:26:23.843Z,14.21
2024-03-12T09:28:50.943Z,14.22
2024-03-12T09:31:17.693Z,14.14
2024-03-12T09:33:46.067Z,14.23
2024-03-12T09:36:15.587Z,14.13
2024-03-12T09:38:44.839Z,14.20
2024-03-12T09:41:13.420Z,14.24
2024-03-12T09:43:40.711Z,14.25
2024-03-12T09:46:07.701Z,14.29
2024-03-12T09:48:35.003Z,14.35
2024-03-12T09:51:01.789Z,14.39
2024-03-12T09:53:28.400Z,14.35
2024-03-12T09:55:56.129Z,14.50
2024-03-12T09:58:22.859Z,14.46
2024-03-12T10:00:49.570Z,14.39
2024-03-12T10:03:19.651Z,14.38
2024-03-12T10:05:47.293Z,14.48
2024-03-12T10:08:16.086Z,14.36
2024-03-12T10:10:43.860Z,14.37
2024-03-12T10:13:17.262Z,14.36
2024-03-12T10:15:57.984Z,14.40
2024-03-12T10:18:30.882Z,14.35
2024-03-12T10:20:58.785Z,14.35
2024-03-12T10:23:27.410Z,14.41
2024-03-12T10:26:10.569Z,14.39
2024-03-12T10:28:40.428Z,14.44
2024-03-12T10:31:13.065Z,14.48
2024-03-12T10:33:43.422Z,14.46
2024-03-12T10:36:13.107Z,14.44
2024-03-12T10:38:43.891Z,14.40
2024-03-12T10:41:19.202Z,14.44
2024-03-12T10:43:51.265Z,14.50
2024-03-12T10:46:18.906Z,14.60
2024-03-12T10:48:48.090Z,14.60
2024-03-12T10:51:16.482Z,14.59
2024-03-12T10:53:44.274Z,14.63
2024-03-12T10:56:15.193Z,14.63
2024-03-12T10:58:48.326Z,14.56
2024-03-12T11:01:17.917Z,14.50
2024-03-12T11:03:45.481Z,14.53
2024-03-12T11:06:14.801Z,14.60
2024-03-12T11:08:44.175Z,14.65
2024-03-12T11:11:10.883Z,14.55
2024-03-12T11:13:37.482Z,14.48
2024-03-12T11:16:17.284Z,14.54
2024-03-12T11:18:45.533Z,14.57
2024-03-12T11:21:12.689Z,14.51
2024-03-12T11:23:39.124Z,14.52
2024-03-12T11:26:15.349Z,14.41
2024-03-12T11:28:51.814Z,14.37
2024-03-12T11:31:19.041Z,14.40
2024-03-12T11:33:53.836Z,14.49
2024-03-12T11:36:40.877Z,14.59
2024-03-12T11:39:16.655Z,14.64
2024-03-12T11:42:02.164Z,14.68
2024-03-12T11:44:49.261Z,14.66
2024-03-12T11:47:36.272Z,14.62
2024-03-12T11:50:26.028Z,14.59
2024-03-12T11:52:52.611Z,14.55
2024-03-12T11:55:53.593Z,14.49
2024-03-12T11:58:21.483Z,14.44
2024-03-12T12:00:51.835Z,14.43
2024-03-12T12:03:18.423Z,14.38
2024-03-12T12:05:48.455Z,14.32
2024-03-12T12:08:17.726Z,14.37
2024-03-12T12:10:56.353Z,14.30
2024-03-12T12:13:24.192Z,14.30
2024-03-12T12:16:02.085Z,14.26
2024-03-12T12:18:32.798Z,14.18
2024-03-12T12:21:03.745Z,14.29
2024-03-12T12:23:30.811Z,14.39
2024-03-12T12:25:58.267Z,14.41
2024-03-12T12:28:25.683Z,14.38
2024-03-12T12:31:00.958Z,14.39
2024-03-12T12:33:29.373Z,14.41
2024-03-12T12:35:57.197Z,14.37
2024-03-12T12:38:24.709Z,14.29
2024-03-12T12:40:52.070Z,14.29
2024-03-12T12:43:18.617Z,14.33
2024-03-12T12:45:48.161Z,14.26
2024-03-12T12:48:15.858Z,14.20
2024-03-12T12:50:42.830Z,14.13
2024-03-12T12:53:13.163Z,14.13
2024-03-12T12:55:39.660Z,14.19
2024-03-12T12:58:08.008Z,14.23
2024-03-12T13:00:39.390Z,14.30
2024-03-12T13:03:17.181Z,14.45
2024-03-12T13:05:45.468Z,14.38
2024-03-12T13:08:30.516Z,14.40
2024-03-12T13:11:09.948Z,14.60
2024-03-12T13:13:38.269Z,14.91
2024-03-12T13:16:14.398Z,15.21
2024-03-12T13:18:46.216Z,15.11
2024-03-12T13:21:21.302Z,15.14
2024-03-12T13:23:48.434Z,14.95
2024-03-12T13:26:15.650Z,14.93
2024-03-12T13:28:42.584Z,14.79
2024-03-12T13:31:09.563Z,14.79
2024-03-12T13:33:36.124Z,14.78
2024-03-12T13:36:02.876Z,14.73
2024-03-12T13:38:29.398Z,14.70
2024-03-12T13:40:56.937Z,14.75
2024-03-12T13:43:32.829Z,14.69
2024-03-12T13:45:59.475Z,14.71
2024-03-12T13:48:26.891Z,14.65
2024-03-12T13:51:11.607Z,14.67
2024-03-12T13:53:41.762Z,14.78
2024-03-12T13:56:11.069Z,14.74
2024-03-12T13:58:42.915Z,14.76
2024-03-12T14:01:13.785Z,14.83
2024-03-12T14:03:41.268Z,14.79
2024-03-12T14:06:10.199Z,14.77
2024-03-12T14:08:37.154Z,14.77
2024-03-12T14:11:03.960Z,14.77
2024-03-12T14:13:32.680Z,14.72
2024-03-12T14:16:00.040Z,14.71
2024-03-12T14:18:27.605Z,14.71
2024-03-12T14:20:55.834Z,14.74
2024-03-12T14:23:22.673Z,14.74
2024-03-12T14:25:50.154Z,14.74
2024-03-12T14:28:17.103Z,14.77
2024-03-12T14:30:45.635Z,14.77
2024-03-12T14:33:12.794Z,14.80
2024-03-12T14:35:39.362Z,14.70
2024-03-12T14:38:05.779Z,14.65
2024-03-12T14:40:32.323Z,14.61
2024-03-12T14:42:59.137Z,14.63
2024-03-12T14:45:25.688Z,14.58
2024-03-12T14:47:52.518Z,14.59
2024-03-12T14:50:19.429Z,14.54
2024-03-12T14:52:48.740Z,14.59
2024-03-12T14:55:15.304Z,14.54
2024-03-12T14:57:42.051Z,14.57
2024-03-12T15:00:10.705Z,14.61
2024-03-12T15:02:37.655Z,14.53
2024-03-12T15:05:11.675Z,14.44
2024-03-12T15:07:44.388Z,14.51
2024-03-12T15:10:11.511Z,14.49
2024-03-12T15:12:40.624Z,14.50
2024-03-12T15:15:15.893Z,14.46
2024-03-12T15:17:43.587Z,14.43
2024-03-12T15:20:11.363Z,14.38
2024-03-12T15:22:38.477Z,14.45
2024-03-12T15:25:07.616Z,14.38
2024-03-12T15:27:35.487Z,14.47
2024-03-12T15:30:02.323Z,14.57
2024-03-12T15:32:29.096Z,14.60
2024-03-12T15:34:57.616Z,14.54
2024-03-12T15:37:24.437Z,14.57
2024-03-12T15:39:51.063Z,14.59
2024-03-12T15:42:18.248Z,14.66
2024-03-12T15:44:44.686Z,14.66
2024-03-12T15:47:11.358Z,14.59
2024-03-12T15:49:40.327Z,14.65
2024-03-12T15:52:07.095Z,14.68
2024-03-12T15:54:33.644Z,14.70
2024-03-12T15:57:00.133Z,14.72
2024-03-12T15:59:27.177Z,14.78
2024-03-12T16:01:54.849Z,14.80
2024-03-12T16:04:21.612Z,14.80
2024-03-12T16:06:48.177Z,14.78
2024-03-12T16:09:17.848Z,14.79
2024-03-12T16:11:44.708Z,14.82
2024-03-12T16:14:13.128Z,14.78
2024-03-12T16:16:40.638Z,14.78
2024-03-12T16:19:07.988Z,14.81
2024-03-12T16:21:35.326Z,14.77
2024-03-12T16:24:02.372Z,14.79
2024-03-12T16:26:29.515Z,14.74
2024-03-12T16:28:56.002Z,14.75
2024-03-12T16:31:22.566Z,14.74
2024-03-12T16:33:49.615Z,14.78
2024-03-12T16:36:19.305Z,14.77
2024-03-12T16:38:47.578Z,14.80
2024-03-12T16:41:15.710Z,14.83
2024-03-12T16:43:42.962Z,14.79
2024-03-12T16:46:10.753Z,14.74
2024-03-12T16:48:40.927Z,14.77
2024-03-12T16:51:08.350Z,14.73
2024-03-12T16:53:35.007Z,14.72
2024-03-12T16:56:02.076Z,14.69
2024-03-12T16:58:30.147Z,14.65
2024-03-12T17:00:59.258Z,14.64
2024-03-12T17:03:26.928Z,14.70
2024-03-12T17:05:55.755Z,14.62
2024-03-12T17:08:22.338Z,14.53
2024-03-12T17:10:49.551Z,14.55
2024-03-12T17:13:17.993Z,14.53
2024-03-12T17:15:46.720Z,14.54
2024-03-12T17:18:25.269Z,14.55
2024-03-12T17:20:53.018Z,14.58
2024-03-12T17:23:19.588Z,14.63
2024-03-12T17:25:46.275Z,14.67
2024-03-12T17:28:13.218Z,14.69
2024-03-12T17:30:40.143Z,14.63
2024-03-12T17:33:08.262Z,14.64
2024-03-12T17:35:34.950Z,14.60
2024-03-12T17:38:02.527Z,14.60
2024-03-12T17:40:29.945Z,14.55
2024-03-12T17:42:56.674Z,14.55
2024-03-12T17:45:24.832Z,14.53
2024-03-12T17:47:52.824Z,14.52
2024-03-12T17:50:24.224Z,14.51
2024-03-12T17:52:52.528Z,14.51
2024-03-12T17:55:20.365Z,14.49
2024-03-12T17:57:47.502Z,14.49
2024-03-12T18:00:15.573Z,14.47
2024-03-12T18:02:44.970Z,14.47
2024-03-12T18:05:12.815Z,14.45
2024-03-12T18:07:43.760Z,14.44
2024-03-12T18:10:20.605Z,14.41
2024-03-12T18:12:48.174Z,14.40
2024-03-12T18:15:19.030Z,14.36
2024-03-12T18:17:46.233Z,14.34
2024-03-12T18:20:14.088Z,14.37
2024-03-12T18:22:41.097Z,14.42
2024-03-12T18:25:12.465Z,14.44
2024-03-12T18:27:43.924Z,14.44
2024-03-12T18:30:11.366Z,14.39
2024-03-12T18:32:41.393Z,14.35
2024-03-12T18:35:08.970Z,14.35
2024-03-12T18:37:39.560Z,14.31
2024-03-12T18:40:12.633Z,14.24
2024-03-12T18:42:40.677Z,14.23
2024-03-12T18:45:08.123Z,14.18
2024-03-12T18:47:35.258Z,14.16
2024-03-12T18:50:02.096Z,14.14
2024-03-12T18:52:28.954Z,14.11
2024-03-12T18:54:55.802Z,14.08
2024-03-12T18:57:22.559Z,14.07
2024-03-12T18:59:51.073Z,14.03
2024-03-12T19:02:27.245Z,13.97
2024-03-12T19:04:59.473Z,13.94
2024-03-12T19:07:27.226Z,13.91
2024-03-12T19:09:54.155Z,13.87
2024-03-12T19:12:20.859Z,13.83
2024-03-12T19:14:47.764Z,13.78
2024-03-12T19:17:16.223Z,13.76
2024-03-12T19:19:42.932Z,13.74
2024-03-12T19:22:11.694Z,13.71
2024-03-12T19:24:38.812Z,13.68
2024-03-12T19:27:07.539Z,13.62
2024-03-12T19:29:36.397Z,13.60
2024-03-12T19:32:04.924Z,13.55
2024-03-12T19:34:33.956Z,13.51
2024-03-12T19:37:02.781Z,13.48
2024-03-12T19:39:30.917Z,13.48
2024-03-12T19:41:57.769Z,13.44
2024-03-12T19:44:24.335Z,13.44
2024-03-12T19:46:51.131Z,13.42
2024-03-12T19:49:17.923Z,13.40
2024-03-12T19:51:44.634Z,13.40
2024-03-12T19:54:16.888Z,13.42
2024-03-12T19:56:43.342Z,13.44
2024-03-12T19:59:10.378Z,13.44
2024-03-12T20:01:38.884Z,13.48
2024-03-12T20:04:05.565Z,13.52
2024-03-12T20:06:33.267Z,13.54
2024-03-12T20:09:01.431Z,13.57
2024-03-12T20:11:28.013Z,13.58
2024-03-12T20:13:56.190Z,13.59
2024-03-12T20:16:22.869Z,13.63
2024-03-12T20:18:50.241Z,13.61
2024-03-12T20:21:17.968Z,13.62
2024-03-12T20:23:44.656Z,13.61
2024-03-12T20:26:11.122Z,13.59
2024-03-12T20:28:37.712Z,13.62
2024-03-12T20:31:06.895Z,13.59
2024-03-12T20:33:33.645Z,13.60
2024-03-12T20:36:02.360Z,13.57
2024-03-12T20:38:30.004Z,13.57
2024-03-12T20:40:56.510Z,13.58
2024-03-12T20:43:23.058Z,13.59
2024-03-12T20:45:50.350Z,13.61
2024-03-12T20:48:16.986Z,13.62
2024-03-12T20:50:44.315Z,13.62
2024-03-12T20:53:13.758Z,13.58
2024-03-12T20:55:40.530Z,13.58
2024-03-12T20:58:07.130Z,13.57
2024-03-12T21:00:34.517Z,13.55
2024-03-12T21:03:01.194Z,13.50
2024-03-12T21:05:28.398Z,13.50
2024-03-12T21:07:54.936Z,13.52
2024-03-12T21:10:22.904Z,13.51
2024-03-12T21:12:51.734Z,13.48
2024-03-12T21:15:19.171Z,13.45
2024-03-12T21:17:46.384Z,13.41
2024-03-12T21:20:34.299Z,13.44
2024-03-12T21:23:01.183Z,13.46
2024-03-12T21:25:27.870Z,13.41
2024-03-12T21:27:54.527Z,13.41
2024-03-12T21:30:22.997Z,13.39
2024-03-12T21:32:50.599Z,13.38
2024-03-12T21:35:17.217Z,13.33
2024-03-12T21:37:43.715Z,13.29
2024-03-12T21:40:12.444Z,13.26
2024-03-12T21:42:39.914Z,13.22
2024-03-12T21:45:13.449Z,13.18
2024-03-12T21:47:41.079Z,13.13
2024-03-12T21:50:15.031Z,13.09
2024-03-12T21:52:42.209Z,13.05
2024-03-12T21:55:11.375Z,13.04
2024-03-12T21:57:39.499Z,13.05
2024-03-12T22:00:11.870Z,13.03
2024-03-12T22:02:39.247Z,13.00
2024-03-12T22:05:08.715Z,12.96
2024-03-12T22:07:38.256Z,12.93
2024-03-12T22:10:06.104Z,12.93
2024-03-12T22:12:32.620Z,12.94
2024-03-12T22:14:59.098Z,12.92
2024-03-12T22:17:25.669Z,12.95
2024-03-12T22:19:52.124Z,12.95
2024-03-12T22:22:18.655Z,12.93
2024-03-12T22:24:45.227Z,12.93
2024-03-12T22:27:11.695Z,12.88
2024-03-12T22:29:39.819Z,12.89
2024-03-12T22:32:09.479Z,12.89
2024-03-12T22:34:36.103Z,12.89
2024-03-12T22:37:02.646Z,12.90
2024-03-12T22:39:29.421Z,12.89
2024-03-12T22:41:56.581Z,12.88
2024-03-12T22:44:23.214Z,12.89
2024-03-12T22:46:50.541Z,12.87
2024-03-12T22:49:17.145Z,12.85
2024-03-12T22:51:44.229Z,12.83
2024-03-12T22:54:11.304Z,12.81
2024-03-12T22:56:38.793Z,12.80
2024-03-12T22:59:05.521Z,12.77
2024-03-12T23:01:32.433Z,12.74
2024-03-12T23:03:59.945Z,12.73
2024-03-12T23:06:26.624Z,12.69
2024-03-12T23:08:53.461Z,12.68
2024-03-12T23:11:22.459Z,12.69
2024-03-12T23:13:49.068Z,12.71
2024-03-12T23:16:16.229Z,12.69
2024-03-12T23:18:43.176Z,12.68
2024-03-12T23:21:11.426Z,12.67
2024-03-12T23:23:38.854Z,12.68
2024-03-12T23:26:05.693Z,12.68
2024-03-12T23:28:32.225Z,12.68
2024-03-12T23:30:58.921Z,12.63
2024-03-12T23:33:26.219Z,12.63
2024-03-12T23:35:52.865Z,12.63
2024-03-12T23:38:20.056Z,12.63
2024-03-12T23:40:46.749Z,12.62
2024-03-12T23:43:13.315Z,12.61
2024-03-12T23:45:39.856Z,12.60
2024-03-12T23:48:08.615Z,12.58
2024-03-12T23:50:36.934Z,12.58
2024-03-12T23:53:06.465Z,12.55
2024-03-12T23:55:33.037Z,12.55
2024-03-12T23:58:00.749Z,12.55
